sensor_id;sensor_type;location;lat;lon;timestamp;P1;P2;P0
35654;PMS1003;21773;50.010;19.972;2024-02-04T00:00:26;5.60;5.00;4.60
35654;PMS1003;21773;50.010;19.972;2024-02-04T00:03:31;7.00;7.00;6.00
35654;PMS1003;21773;50.010;19.972;2024-02-04T00:06:34;6.00;5.00;4.00
35654;PMS1003;21773;50.010;19.972;2024-02-04T00:09:37;6.00;5.80;4.80
35654;PMS1003;21773;50.010;19.972;2024-02-04T00:12:41;9.25;8.50;8.00
35654;PMS1003;21773;50.010;19.972;2024-02-04T00:15:44;7.40;7.40;7.00
35654;PMS1003;21773;50.010;19.972;2024-02-04T00:18:48;7.40;6.40;6.00
35654;PMS1003;21773;50.010;19.972;2024-02-04T00:21:52;7.00;7.00;6.00
35654;PMS1003;21773;50.010;19.972;2024-02-04T00:24:55;8.00;7.00;6.00
35654;PMS1003;21773;50.010;19.972;2024-02-04T00:28:03;8.80;7.80;7.40
35654;PMS1003;21773;50.010;19.972;2024-02-04T00:31:07;7.00;6.00;6.00
35654;PMS1003;21773;50.010;19.972;2024-02-04T00:34:12;5.00;5.00;5.00
35654;PMS1003;21773;50.010;19.972;2024-02-04T00:37:15;6.00;5.00;4.00
35654;PMS1003;21773;50.010;19.972;2024-02-04T00:40:18;9.00;7.00;6.00
35654;PMS1003;21773;50.010;19.972;2024-02-04T00:43:21;8.00;7.00;6.00
35654;PMS1003;21773;50.010;19.972;2024-02-04T00:46:25;6.00;5.20;4.80
35654;PMS1003;21773;50.010;19.972;2024-02-04T00:49:29;5.60;5.00;4.00
35654;PMS1003;21773;50.010;19.972;2024-02-04T00:52:32;7.00;6.00;6.00
35654;PMS1003;21773;50.010;19.972;2024-02-04T00:55:35;3.40;3.40;3.00
35654;PMS1003;21773;50.010;19.972;2024-02-04T00:58:38;6.00;6.00;5.00
35654;PMS1003;21773;50.010;19.972;2024-02-04T01:01:42;6.00;5.00;4.50
35654;PMS1003;21773;50.010;19.972;2024-02-04T01:04:46;4.00;3.00;2.00
35654;PMS1003;21773;50.010;19.972;2024-02-04T01:07:52;5.00;5.00;4.00
35654;PMS1003;21773;50.010;19.972;2024-02-04T01:10:55;4.00;3.60;3.00
35654;PMS1003;21773;50.010;19.972;2024-02-04T01:13:58;5.00;4.60;4.00
35654;PMS1003;21773;50.010;19.972;2024-02-04T01:17:01;4.80;4.20;3.80
35654;PMS1003;21773;50.010;19.972;2024-02-04T01:20:06;4.80;4.80;4.80
35654;PMS1003;21773;50.010;19.972;2024-02-04T01:23:10;6.00;6.00;5.00
35654;PMS1003;21773;50.010;19.972;2024-02-04T01:26:15;6.00;5.80;5.00
35654;PMS1003;21773;50.010;19.972;2024-02-04T01:29:18;6.25;6.00;6.00
35654;PMS1003;21773;50.010;19.972;2024-02-04T01:32:21;6.00;5.00;5.00
35654;PMS1003;21773;50.010;19.972;2024-02-04T01:35:25;5.60;5.00;5.00
35654;PMS1003;21773;50.010;19.972;2024-02-04T01:38:28;6.50;5.50;5.00
35654;PMS1003;21773;50.010;19.972;2024-02-04T01:41:31;5.50;5.50;5.00
35654;PMS1003;21773;50.010;19.972;2024-02-04T01:44:35;6.00;6.00;5.00
35654;PMS1003;21773;50.010;19.972;2024-02-04T01:47:38;4.80;4.80;4.00
35654;PMS1003;21773;50.010;19.972;2024-02-04T01:50:43;3.60;3.60;3.40
35654;PMS1003;21773;50.010;19.972;2024-02-04T01:53:48;6.00;5.00;4.00
35654;PMS1003;21773;50.010;19.972;2024-02-04T01:56:52;7.00;7.00;6.00
35654;PMS1003;21773;50.010;19.972;2024-02-04T01:59:57;5.00;4.40;4.00
35654;PMS1003;21773;50.010;19.972;2024-02-04T02:03:01;6.00;6.00;5.75
35654;PMS1003;21773;50.010;19.972;2024-02-04T02:06:10;7.00;6.00;6.00
35654;PMS1003;21773;50.010;19.972;2024-02-04T02:09:13;6.00;5.00;5.00
35654;PMS1003;21773;50.010;19.972;2024-02-04T02:12:18;6.60;6.00;5.00
35654;PMS1003;21773;50.010;19.972;2024-02-04T02:15:25;4.80;4.80;3.80
35654;PMS1003;21773;50.010;19.972;2024-02-04T02:18:34;6.00;6.00;5.00
35654;PMS1003;21773;50.010;19.972;2024-02-04T02:21:47;5.00;5.00;5.00
35654;PMS1003;21773;50.010;19.972;2024-02-04T02:25:00;6.60;6.00;5.00
35654;PMS1003;21773;50.010;19.972;2024-02-04T02:28:07;7.00;6.00;6.00
35654;PMS1003;21773;50.010;19.972;2024-02-04T02:31:11;6.00;6.00;5.40
35654;PMS1003;21773;50.010;19.972;2024-02-04T02:34:15;5.60;5.00;5.00
35654;PMS1003;21773;50.010;19.972;2024-02-04T02:37:24;7.00;5.25;5.00
35654;PMS1003;21773;50.010;19.972;2024-02-04T02:40:34;7.80;6.80;5.80
35654;PMS1003;21773;50.010;19.972;2024-02-04T02:43:47;4.20;4.00;3.00
35654;PMS1003;21773;50.010;19.972;2024-02-04T02:46:53;4.00;4.00;4.00
35654;PMS1003;21773;50.010;19.972;2024-02-04T02:49:59;5.00;5.00;5.00
35654;PMS1003;21773;50.010;19.972;2024-02-04T02:53:03;6.00;6.00;5.00
35654;PMS1003;21773;50.010;19.972;2024-02-04T02:56:08;4.00;4.00;4.00
35654;PMS1003;21773;50.010;19.972;2024-02-04T02:59:11;5.00;5.00;4.50
35654;PMS1003;21773;50.010;19.972;2024-02-04T03:02:14;4.00;4.00;3.00
35654;PMS1003;21773;50.010;19.972;2024-02-04T03:05:18;5.00;4.00;4.00
35654;PMS1003;21773;50.010;19.972;2024-02-04T03:08:21;5.20;5.00;4.80
35654;PMS1003;21773;50.010;19.972;2024-02-04T03:11:25;3.00;3.00;2.20
35654;PMS1003;21773;50.010;19.972;2024-02-04T03:14:29;5.00;5.00;4.00
35654;PMS1003;21773;50.010;19.972;2024-02-04T03:17:32;2.80;2.80;2.20
35654;PMS1003;21773;50.010;19.972;2024-02-04T03:20:35;2.00;2.00;2.00
35654;PMS1003;21773;50.010;19.972;2024-02-04T03:23:38;4.00;3.00;3.00
35654;PMS1003;21773;50.010;19.972;2024-02-04T03:26:43;2.00;2.00;2.00
35654;PMS1003;21773;50.010;19.972;2024-02-04T03:29:46;2.00;2.00;1.00
35654;PMS1003;21773;50.010;19.972;2024-02-04T03:32:49;1.00;1.00;1.00
35654;PMS1003;21773;50.010;19.972;2024-02-04T03:35:53;1.75;1.75;1.75
35654;PMS1003;21773;50.010;19.972;2024-02-04T03:38:56;2.00;2.00;1.25
35654;PMS1003;21773;50.010;19.972;2024-02-04T03:42:01;3.00;3.00;2.00
35654;PMS1003;21773;50.010;19.972;2024-02-04T03:45:05;1.60;1.40;1.00
35654;PMS1003;21773;50.010;19.972;2024-02-04T03:48:08;2.00;1.50;1.00
35654;PMS1003;21773;50.010;19.972;2024-02-04T03:51:14;0.80;0.80;0.80
35654;PMS1003;21773;50.010;19.972;2024-02-04T03:54:18;2.00;2.00;1.60
35654;PMS1003;21773;50.010;19.972;2024-02-04T03:57:23;2.00;2.00;2.00
35654;PMS1003;21773;50.010;19.972;2024-02-04T04:00:26;2.00;2.00;1.00
35654;PMS1003;21773;50.010;19.972;2024-02-04T04:03:29;1.00;1.00;1.00
35654;PMS1003;21773;50.010;19.972;2024-02-04T04:06:32;1.80;1.00;1.00
35654;PMS1003;21773;50.010;19.972;2024-02-04T04:09:35;1.40;1.40;1.00
35654;PMS1003;21773;50.010;19.972;2024-02-04T04:12:40;2.00;2.00;1.60
35654;PMS1003;21773;50.010;19.972;2024-02-04T04:15:43;1.00;1.00;1.00
35654;PMS1003;21773;50.010;19.972;2024-02-04T04:18:46;1.00;1.00;1.00
35654;PMS1003;21773;50.010;19.972;2024-02-04T04:21:50;2.00;1.40;1.00
35654;PMS1003;21773;50.010;19.972;2024-02-04T04:24:53;0.00;0.00;0.00
35654;PMS1003;21773;50.010;19.972;2024-02-04T04:27:58;1.00;1.00;1.00
35654;PMS1003;21773;50.010;19.972;2024-02-04T04:31:01;1.00;1.00;1.00
35654;PMS1003;21773;50.010;19.972;2024-02-04T04:34:04;1.00;1.00;1.00
35654;PMS1003;21773;50.010;19.972;2024-02-04T04:37:08;1.00;1.00;1.00
35654;PMS1003;21773;50.010;19.972;2024-02-04T04:40:11;1.00;1.00;1.00
35654;PMS1003;21773;50.010;19.972;2024-02-04T04:43:16;1.40;1.40;1.40
35654;PMS1003;21773;50.010;19.972;2024-02-04T04:46:19;1.00;1.00;1.00
35654;PMS1003;21773;50.010;19.972;2024-02-04T04:49:22;0.20;0.20;0.00
35654;PMS1003;21773;50.010;19.972;2024-02-04T04:52:26;0.00;0.00;0.00
35654;PMS1003;21773;50.010;19.972;2024-02-04T04:55:29;2.40;2.40;2.00
35654;PMS1003;21773;50.010;19.972;2024-02-04T04:58:34;1.60;1.00;1.00
35654;PMS1003;21773;50.010;19.972;2024-02-04T05:01:40;2.00;2.00;2.00
35654;PMS1003;21773;50.010;19.972;2024-02-04T05:04:48;2.00;2.00;1.00
35654;PMS1003;21773;50.010;19.972;2024-02-04T05:07:51;2.00;2.00;2.00
35654;PMS1003;21773;50.010;19.972;2024-02-04T05:10:54;3.00;2.00;2.00
35654;PMS1003;21773;50.010;19.972;2024-02-04T05:13:59;2.00;2.00;2.00
35654;PMS1003;21773;50.010;19.972;2024-02-04T05:17:02;2.00;2.00;1.20
35654;PMS1003;21773;50.010;19.972;2024-02-04T05:20:05;3.40;3.00;2.40
35654;PMS1003;21773;50.010;19.972;2024-02-04T05:23:09;2.20;2.00;2.00
35654;PMS1003;21773;50.010;19.972;2024-02-04T05:26:12;2.60;2.00;2.00
35654;PMS1003;21773;50.010;19.972;2024-02-04T05:29:17;2.00;2.00;2.00
35654;PMS1003;21773;50.010;19.972;2024-02-04T05:32:20;4.00;3.00;2.20
35654;PMS1003;21773;50.010;19.972;2024-02-04T05:35:23;2.00;1.00;1.00
35654;PMS1003;21773;50.010;19.972;2024-02-04T05:38:26;2.00;2.00;2.00
35654;PMS1003;21773;50.010;19.972;2024-02-04T05:41:29;1.50;1.50;1.00
35654;PMS1003;21773;50.010;19.972;2024-02-04T05:44:34;2.00;1.60;1.00
35654;PMS1003;21773;50.010;19.972;2024-02-04T05:47:37;1.00;1.00;1.00
35654;PMS1003;21773;50.010;19.972;2024-02-04T05:50:40;2.00;2.00;2.00
35654;PMS1003;21773;50.010;19.972;2024-02-04T05:53:43;1.60;1.60;1.00
35654;PMS1003;21773;50.010;19.972;2024-02-04T05:56:46;1.00;1.00;1.00
35654;PMS1003;21773;50.010;19.972;2024-02-04T05:59:51;1.00;1.00;1.00
35654;PMS1003;21773;50.010;19.972;2024-02-04T06:02:56;2.00;2.00;1.40
35654;PMS1003;21773;50.010;19.972;2024-02-04T06:05:59;1.00;1.00;1.00
35654;PMS1003;21773;50.010;19.972;2024-02-04T06:09:03;2.00;2.00;2.00
35654;PMS1003;21773;50.010;19.972;2024-02-04T06:12:06;2.00;2.00;2.00
35654;PMS1003;21773;50.010;19.972;2024-02-04T06:15:13;1.00;1.00;1.00
35654;PMS1003;21773;50.010;19.972;2024-02-04T06:18:16;1.00;1.00;1.00
35654;PMS1003;21773;50.010;19.972;2024-02-04T06:21:19;1.60;1.60;1.00
35654;PMS1003;21773;50.010;19.972;2024-02-04T06:24:22;2.00;2.00;2.00
35654;PMS1003;21773;50.010;19.972;2024-02-04T06:27:26;2.00;2.00;1.80
35654;PMS1003;21773;50.010;19.972;2024-02-04T06:30:30;1.00;1.00;1.00
35654;PMS1003;21773;50.010;19.972;2024-02-04T06:33:33;1.00;1.00;1.00
35654;PMS1003;21773;50.010;19.972;2024-02-04T06:36:37;1.40;1.00;1.00
35654;PMS1003;21773;50.010;19.972;2024-02-04T06:39:40;2.00;1.50;1.00
35654;PMS1003;21773;50.010;19.972;2024-02-04T06:42:43;2.00;2.00;2.00
35654;PMS1003;21773;50.010;19.972;2024-02-04T06:45:48;1.80;1.80;1.80
35654;PMS1003;21773;50.010;19.972;2024-02-04T06:48:51;2.00;2.00;1.40
35654;PMS1003;21773;50.010;19.972;2024-02-04T06:51:54;3.00;2.00;2.00
35654;PMS1003;21773;50.010;19.972;2024-02-04T06:54:58;3.00;3.00;3.00
35654;PMS1003;21773;50.010;19.972;2024-02-04T06:58:02;2.00;2.00;2.00
35654;PMS1003;21773;50.010;19.972;2024-02-04T07:01:06;3.00;3.00;2.75
35654;PMS1003;21773;50.010;19.972;2024-02-04T07:04:10;3.00;3.00;2.33
35654;PMS1003;21773;50.010;19.972;2024-02-04T07:07:13;2.25;2.00;2.00
35654;PMS1003;21773;50.010;19.972;2024-02-04T07:10:16;3.00;3.00;2.25
35654;PMS1003;21773;50.010;19.972;2024-02-04T07:13:20;3.25;3.25;3.25
35654;PMS1003;21773;50.010;19.972;2024-02-04T07:16:25;2.20;2.20;2.00
35654;PMS1003;21773;50.010;19.972;2024-02-04T07:19:28;2.00;2.00;1.00
35654;PMS1003;21773;50.010;19.972;2024-02-04T07:22:32;2.00;1.80;1.00
35654;PMS1003;21773;50.010;19.972;2024-02-04T07:25:38;3.00;3.00;3.00
35654;PMS1003;21773;50.010;19.972;2024-02-04T07:28:41;2.00;2.00;2.00
35654;PMS1003;21773;50.010;19.972;2024-02-04T07:31:46;2.75;2.00;1.25
35654;PMS1003;21773;50.010;19.972;2024-02-04T07:34:49;3.00;2.00;1.00
35654;PMS1003;21773;50.010;19.972;2024-02-04T07:37:52;3.00;2.00;2.00
35654;PMS1003;21773;50.010;19.972;2024-02-04T07:40:55;4.00;3.00;3.00
35654;PMS1003;21773;50.010;19.972;2024-02-04T07:44:00;2.00;2.00;1.00
35654;PMS1003;21773;50.010;19.972;2024-02-04T07:47:05;4.00;3.60;3.00
35654;PMS1003;21773;50.010;19.972;2024-02-04T07:50:08;1.00;1.00;1.00
35654;PMS1003;21773;50.010;19.972;2024-02-04T07:53:12;2.00;2.00;2.00
35654;PMS1003;21773;50.010;19.972;2024-02-04T07:56:15;3.40;3.00;3.00
35654;PMS1003;21773;50.010;19.972;2024-02-04T07:59:18;3.00;2.75;2.00
35654;PMS1003;21773;50.010;19.972;2024-02-04T08:02:23;3.00;2.20;2.00
35654;PMS1003;21773;50.010;19.972;2024-02-04T08:05:26;2.00;2.00;1.00
35654;PMS1003;21773;50.010;19.972;2024-02-04T08:08:29;2.00;2.00;1.20
35654;PMS1003;21773;50.010;19.972;2024-02-04T08:11:32;2.00;2.00;2.00
35654;PMS1003;21773;50.010;19.972;2024-02-04T08:14:35;3.00;2.60;2.00
35654;PMS1003;21773;50.010;19.972;2024-02-04T08:17:40;3.00;2.67;2.00
35654;PMS1003;21773;50.010;19.972;2024-02-04T08:20:43;2.60;2.60;2.60
35654;PMS1003;21773;50.010;19.972;2024-02-04T08:23:46;3.60;3.00;2.00
35654;PMS1003;21773;50.010;19.972;2024-02-04T08:26:49;2.00;2.00;2.00
35654;PMS1003;21773;50.010;19.972;2024-02-04T08:29:52;3.00;2.00;1.00
35654;PMS1003;21773;50.010;19.972;2024-02-04T08:32:57;2.00;2.00;2.00
35654;PMS1003;21773;50.010;19.972;2024-02-04T08:36:00;3.40;2.40;2.00
35654;PMS1003;21773;50.010;19.972;2024-02-04T08:39:03;2.00;2.00;2.00
35654;PMS1003;21773;50.010;19.972;2024-02-04T08:42:06;2.40;2.40;2.00
35654;PMS1003;21773;50.010;19.972;2024-02-04T08:45:10;3.00;2.40;2.40
35654;PMS1003;21773;50.010;19.972;2024-02-04T08:48:14;3.00;3.00;2.40
35654;PMS1003;21773;50.010;19.972;2024-02-04T08:51:17;3.00;3.00;3.00
35654;PMS1003;21773;50.010;19.972;2024-02-04T08:54:21;2.40;2.40;2.00
35654;PMS1003;21773;50.010;19.972;2024-02-04T08:57:24;2.40;2.40;2.00
35654;PMS1003;21773;50.010;19.972;2024-02-04T09:00:27;2.80;2.80;2.00
35654;PMS1003;21773;50.010;19.972;2024-02-04T09:03:32;2.00;2.00;2.00
35654;PMS1003;21773;50.010;19.972;2024-02-04T09:06:36;4.00;4.00;4.00
35654;PMS1003;21773;50.010;19.972;2024-02-04T09:09:39;2.60;2.00;2.00
35654;PMS1003;21773;50.010;19.972;2024-02-04T09:12:42;2.00;2.00;2.00
35654;PMS1003;21773;50.010;19.972;2024-02-04T09:15:45;3.00;3.00;2.00
35654;PMS1003;21773;50.010;19.972;2024-02-04T09:18:50;3.00;2.00;2.00
35654;PMS1003;21773;50.010;19.972;2024-02-04T09:21:54;2.00;2.00;1.40
35654;PMS1003;21773;50.010;19.972;2024-02-04T09:24:57;4.00;3.00;3.00
35654;PMS1003;21773;50.010;19.972;2024-02-04T09:28:00;4.00;3.00;2.00
35654;PMS1003;21773;50.010;19.972;2024-02-04T09:31:03;4.00;3.00;3.00
35654;PMS1003;21773;50.010;19.972;2024-02-04T09:34:08;1.00;1.00;1.00
35654;PMS1003;21773;50.010;19.972;2024-02-04T09:37:12;5.25;4.00;3.00
35654;PMS1003;21773;50.010;19.972;2024-02-04T09:40:15;2.00;2.00;1.00
35654;PMS1003;21773;50.010;19.972;2024-02-04T09:43:19;3.50;2.50;2.00
35654;PMS1003;21773;50.010;19.972;2024-02-04T09:46:22;2.00;2.00;1.80
35654;PMS1003;21773;50.010;19.972;2024-02-04T09:49:28;3.00;3.00;3.00
35654;PMS1003;21773;50.010;19.972;2024-02-04T09:52:33;2.20;2.20;2.00
35654;PMS1003;21773;50.010;19.972;2024-02-04T09:55:42;3.00;2.40;2.00
35654;PMS1003;21773;50.010;19.972;2024-02-04T09:58:46;2.00;2.00;1.20
35654;PMS1003;21773;50.010;19.972;2024-02-04T10:01:49;3.00;3.00;2.00
35654;PMS1003;21773;50.010;19.972;2024-02-04T10:04:54;3.60;3.00;2.00
35654;PMS1003;21773;50.010;19.972;2024-02-04T10:07:57;4.00;3.00;2.00
35654;PMS1003;21773;50.010;19.972;2024-02-04T10:11:01;4.00;4.00;4.00
35654;PMS1003;21773;50.010;19.972;2024-02-04T10:14:04;3.40;3.00;2.60
35654;PMS1003;21773;50.010;19.972;2024-02-04T10:17:08;5.40;5.00;3.40
35654;PMS1003;21773;50.010;19.972;2024-02-04T10:20:13;4.50;4.00;3.50
35654;PMS1003;21773;50.010;19.972;2024-02-04T10:23:21;5.00;3.20;3.00
35654;PMS1003;21773;50.010;19.972;2024-02-04T10:26:27;4.25;4.00;3.00
35654;PMS1003;21773;50.010;19.972;2024-02-04T10:29:32;6.00;4.40;4.00
35654;PMS1003;21773;50.010;19.972;2024-02-04T10:32:36;4.00;4.00;3.00
35654;PMS1003;21773;50.010;19.972;2024-02-04T10:35:41;4.25;4.00;3.00
35654;PMS1003;21773;50.010;19.972;2024-02-04T10:38:45;4.00;3.00;3.00
35654;PMS1003;21773;50.010;19.972;2024-02-04T10:41:49;5.00;4.00;3.00
35654;PMS1003;21773;50.010;19.972;2024-02-04T10:44:54;5.40;5.00;4.00
35654;PMS1003;21773;50.010;19.972;2024-02-04T10:48:00;6.00;5.00;4.00
35654;PMS1003;21773;50.010;19.972;2024-02-04T10:51:06;3.00;3.00;2.60
35654;PMS1003;21773;50.010;19.972;2024-02-04T10:54:09;3.60;3.00;2.40
35654;PMS1003;21773;50.010;19.972;2024-02-04T10:57:15;5.00;4.00;4.00
35654;PMS1003;21773;50.010;19.972;2024-02-04T11:00:24;4.00;3.00;3.00
35654;PMS1003;21773;50.010;19.972;2024-02-04T11:03:30;4.00;4.00;3.00
35654;PMS1003;21773;50.010;19.972;2024-02-04T11:06:35;3.00;2.50;2.00
35654;PMS1003;21773;50.010;19.972;2024-02-04T11:09:39;5.00;3.67;3.00
35654;PMS1003;21773;50.010;19.972;2024-02-04T11:12:43;3.80;3.80;3.00
35654;PMS1003;21773;50.010;19.972;2024-02-04T11:15:48;5.00;5.00;4.00
35654;PMS1003;21773;50.010;19.972;2024-02-04T11:18:56;6.00;4.00;3.00
35654;PMS1003;21773;50.010;19.972;2024-02-04T11:22:17;3.20;3.20;2.20
35654;PMS1003;21773;50.010;19.972;2024-02-04T11:25:36;5.75;4.75;4.00
35654;PMS1003;21773;50.010;19.972;2024-02-04T11:28:46;4.00;4.00;3.00
35654;PMS1003;21773;50.010;19.972;2024-02-04T11:31:49;4.80;4.80;4.00
35654;PMS1003;21773;50.010;19.972;2024-02-04T11:34:56;4.00;3.00;3.00
35654;PMS1003;21773;50.010;19.972;2024-02-04T11:38:04;6.00;5.60;5.00
35654;PMS1003;21773;50.010;19.972;2024-02-04T11:41:08;5.00;5.00;4.00
35654;PMS1003;21773;50.010;19.972;2024-02-04T11:44:11;7.00;6.40;6.00
35654;PMS1003;21773;50.010;19.972;2024-02-04T11:47:22;4.60;4.60;4.40
35654;PMS1003;21773;50.010;19.972;2024-02-04T11:50:27;5.00;5.00;5.00
35654;PMS1003;21773;50.010;19.972;2024-02-04T11:53:34;6.60;5.60;4.60
35654;PMS1003;21773;50.010;19.972;2024-02-04T11:56:37;5.00;4.00;4.00
35654;PMS1003;21773;50.010;19.972;2024-02-04T11:59:42;6.25;6.00;5.00
35654;PMS1003;21773;50.010;19.972;2024-02-04T12:02:46;5.00;5.00;4.60
35654;PMS1003;21773;50.010;19.972;2024-02-04T12:05:49;5.50;5.50;4.50
35654;PMS1003;21773;50.010;19.972;2024-02-04T12:08:54;5.00;4.00;4.00
35654;PMS1003;21773;50.010;19.972;2024-02-04T12:11:57;5.00;5.00;4.00
35654;PMS1003;21773;50.010;19.972;2024-02-04T12:15:00;5.00;5.00;5.00
35654;PMS1003;21773;50.010;19.972;2024-02-04T12:18:06;5.00;5.00;4.00
35654;PMS1003;21773;50.010;19.972;2024-02-04T12:21:09;7.40;6.00;6.00
35654;PMS1003;21773;50.010;19.972;2024-02-04T12:24:14;8.40;7.40;6.40
35654;PMS1003;21773;50.010;19.972;2024-02-04T12:27:17;7.75;7.00;6.00
35654;PMS1003;21773;50.010;19.972;2024-02-04T12:30:20;7.00;6.25;5.00
35654;PMS1003;21773;50.010;19.972;2024-02-04T12:33:24;7.75;7.75;6.75
35654;PMS1003;21773;50.010;19.972;2024-02-04T12:36:27;11.00;9.60;9.00
35654;PMS1003;21773;50.010;19.972;2024-02-04T12:39:33;9.60;8.80;8.00
35654;PMS1003;21773;50.010;19.972;2024-02-04T12:42:36;9.67;8.00;6.67
35654;PMS1003;21773;50.010;19.972;2024-02-04T12:45:40;9.00;8.00;7.60
35654;PMS1003;21773;50.010;19.972;2024-02-04T12:48:44;7.40;7.40;7.00
35654;PMS1003;21773;50.010;19.972;2024-02-04T12:51:47;7.20;7.20;7.00
35654;PMS1003;21773;50.010;19.972;2024-02-04T12:54:52;11.00;10.40;8.40
35654;PMS1003;21773;50.010;19.972;2024-02-04T12:58:02;11.00;10.00;9.40
35654;PMS1003;21773;50.010;19.972;2024-02-04T13:01:07;9.40;8.00;7.00
35654;PMS1003;21773;50.010;19.972;2024-02-04T13:04:10;8.80;8.20;7.80
35654;PMS1003;21773;50.010;19.972;2024-02-04T13:07:13;9.60;8.00;7.60
35654;PMS1003;21773;50.010;19.972;2024-02-04T13:10:20;8.00;6.50;5.50
35654;PMS1003;21773;50.010;19.972;2024-02-04T13:13:24;9.00;7.40;6.00
35654;PMS1003;21773;50.010;19.972;2024-02-04T13:16:28;9.80;8.80;7.20
35654;PMS1003;21773;50.010;19.972;2024-02-04T13:19:32;10.00;8.40;8.00
35654;PMS1003;21773;50.010;19.972;2024-02-04T13:22:36;7.00;6.80;6.00
35654;PMS1003;21773;50.010;19.972;2024-02-04T13:25:41;10.00;7.00;6.00
35654;PMS1003;21773;50.010;19.972;2024-02-04T13:28:44;7.75;7.75;7.25
35654;PMS1003;21773;50.010;19.972;2024-02-04T13:31:47;8.00;7.00;6.00
35654;PMS1003;21773;50.010;19.972;2024-02-04T13:34:50;8.50;8.50;8.00
35654;PMS1003;21773;50.010;19.972;2024-02-04T13:38:06;8.00;8.00;7.00
35654;PMS1003;21773;50.010;19.972;2024-02-04T13:41:11;9.00;8.00;7.00
35654;PMS1003;21773;50.010;19.972;2024-02-04T13:44:15;7.60;7.00;6.60
35654;PMS1003;21773;50.010;19.972;2024-02-04T13:47:18;6.80;6.00;5.20
35654;PMS1003;21773;50.010;19.972;2024-02-04T13:50:28;7.00;7.00;6.40
35654;PMS1003;21773;50.010;19.972;2024-02-04T13:53:36;9.00;9.00;7.40
35654;PMS1003;21773;50.010;19.972;2024-02-04T13:56:41;8.00;7.50;6.50
35654;PMS1003;21773;50.010;19.972;2024-02-04T13:59:44;7.00;7.00;6.00
35654;PMS1003;21773;50.010;19.972;2024-02-04T14:02:47;8.40;7.40;5.60
35654;PMS1003;21773;50.010;19.972;2024-02-04T14:05:50;7.00;7.00;6.00
35654;PMS1003;21773;50.010;19.972;2024-02-04T14:08:53;9.00;7.75;6.00
35654;PMS1003;21773;50.010;19.972;2024-02-04T14:11:58;7.00;6.20;5.80
35654;PMS1003;21773;50.010;19.972;2024-02-04T14:15:01;7.40;7.40;6.40
35654;PMS1003;21773;50.010;19.972;2024-02-04T14:18:04;7.00;7.00;5.75
35654;PMS1003;21773;50.010;19.972;2024-02-04T14:21:08;5.00;5.00;4.25
35654;PMS1003;21773;50.010;19.972;2024-02-04T14:24:15;5.00;5.00;4.60
35654;PMS1003;21773;50.010;19.972;2024-02-04T14:27:20;4.00;3.00;2.00
35654;PMS1003;21773;50.010;19.972;2024-02-04T14:30:23;4.00;2.00;2.00
35654;PMS1003;21773;50.010;19.972;2024-02-04T14:33:26;5.00;5.00;4.00
35654;PMS1003;21773;50.010;19.972;2024-02-04T14:36:29;6.40;4.00;4.00
35654;PMS1003;21773;50.010;19.972;2024-02-04T14:39:33;5.00;3.75;3.00
35654;PMS1003;21773;50.010;19.972;2024-02-04T14:42:37;5.00;4.33;4.00
35654;PMS1003;21773;50.010;19.972;2024-02-04T14:45:43;4.80;4.20;4.00
35654;PMS1003;21773;50.010;19.972;2024-02-04T14:48:47;5.00;4.60;4.00
35654;PMS1003;21773;50.010;19.972;2024-02-04T14:51:50;3.40;3.00;3.00
35654;PMS1003;21773;50.010;19.972;2024-02-04T14:54:53;3.00;3.00;2.00
35654;PMS1003;21773;50.010;19.972;2024-02-04T14:57:58;3.00;2.00;1.80
35654;PMS1003;21773;50.010;19.972;2024-02-04T15:01:01;3.00;3.00;3.00
35654;PMS1003;21773;50.010;19.972;2024-02-04T15:04:07;3.00;3.00;2.00
35654;PMS1003;21773;50.010;19.972;2024-02-04T15:07:11;3.00;3.00;3.00
35654;PMS1003;21773;50.010;19.972;2024-02-04T15:10:15;3.00;3.00;3.00
35654;PMS1003;21773;50.010;19.972;2024-02-04T15:13:22;4.50;4.00;3.50
35654;PMS1003;21773;50.010;19.972;2024-02-04T15:16:27;4.00;4.00;3.25
35654;PMS1003;21773;50.010;19.972;2024-02-04T15:19:31;4.00;3.00;3.00
35654;PMS1003;21773;50.010;19.972;2024-02-04T15:22:39;4.00;3.75;3.00
35654;PMS1003;21773;50.010;19.972;2024-02-04T15:25:42;4.00;4.00;3.60
35654;PMS1003;21773;50.010;19.972;2024-02-04T15:28:48;5.00;4.75;4.00
35654;PMS1003;21773;50.010;19.972;2024-02-04T15:31:51;3.00;3.00;2.00
35654;PMS1003;21773;50.010;19.972;2024-02-04T15:34:55;5.80;4.20;4.00
35654;PMS1003;21773;50.010;19.972;2024-02-04T15:37:59;6.00;5.00;5.00
35654;PMS1003;21773;50.010;19.972;2024-02-04T15:41:02;5.00;4.40;4.00
35654;PMS1003;21773;50.010;19.972;2024-02-04T15:44:07;6.20;5.20;4.80
35654;PMS1003;21773;50.010;19.972;2024-02-04T15:47:10;5.00;5.00;4.00
35654;PMS1003;21773;50.010;19.972;2024-02-04T15:50:14;5.00;5.00;5.00
35654;PMS1003;21773;50.010;19.972;2024-02-04T15:53:18;5.80;5.20;5.00
35654;PMS1003;21773;50.010;19.972;2024-02-04T15:56:22;6.00;5.00;5.00
35654;PMS1003;21773;50.010;19.972;2024-02-04T15:59:31;6.75;6.00;5.00
35654;PMS1003;21773;50.010;19.972;2024-02-04T16:02:46;5.67;5.67;5.00
35654;PMS1003;21773;50.010;19.972;2024-02-04T16:05:50;7.40;7.00;6.40
35654;PMS1003;21773;50.010;19.972;2024-02-04T16:08:53;9.00;8.40;7.40
35654;PMS1003;21773;50.010;19.972;2024-02-04T16:11:58;9.00;8.00;7.00
35654;PMS1003;21773;50.010;19.972;2024-02-04T16:15:09;6.00;6.00;5.40
35654;PMS1003;21773;50.010;19.972;2024-02-04T16:18:14;9.00;6.80;6.00
35654;PMS1003;21773;50.010;19.972;2024-02-04T16:21:18;8.00;7.00;7.00
35654;PMS1003;21773;50.010;19.972;2024-02-04T16:24:21;7.00;7.00;6.00
35654;PMS1003;21773;50.010;19.972;2024-02-04T16:27:24;7.00;7.00;6.00
35654;PMS1003;21773;50.010;19.972;2024-02-04T16:30:29;10.20;9.00;8.00
35654;PMS1003;21773;50.010;19.972;2024-02-04T16:33:32;8.80;7.80;6.20
35654;PMS1003;21773;50.010;19.972;2024-02-04T16:36:36;9.00;8.00;6.60
35654;PMS1003;21773;50.010;19.972;2024-02-04T16:39:39;8.00;7.00;6.00
35654;PMS1003;21773;50.010;19.972;2024-02-04T16:42:43;8.00;8.00;7.00
35654;PMS1003;21773;50.010;19.972;2024-02-04T16:45:47;7.00;7.00;6.40
35654;PMS1003;21773;50.010;19.972;2024-02-04T16:48:50;4.00;4.00;4.00
35654;PMS1003;21773;50.010;19.972;2024-02-04T16:51:54;6.00;5.00;4.00
35654;PMS1003;21773;50.010;19.972;2024-02-04T16:54:57;6.00;4.20;3.80
35654;PMS1003;21773;50.010;19.972;2024-02-04T16:58:00;6.00;5.25;5.00
35654;PMS1003;21773;50.010;19.972;2024-02-04T17:01:05;5.60;5.00;4.60
35654;PMS1003;21773;50.010;19.972;2024-02-04T17:04:09;5.50;5.00;4.00
35654;PMS1003;21773;50.010;19.972;2024-02-04T17:07:13;5.00;4.80;3.80
35654;PMS1003;21773;50.010;19.972;2024-02-04T17:10:16;4.00;4.00;3.60
35654;PMS1003;21773;50.010;19.972;2024-02-04T17:13:20;5.00;5.00;4.00
35654;PMS1003;21773;50.010;19.972;2024-02-04T17:16:27;4.40;4.00;3.60
35654;PMS1003;21773;50.010;19.972;2024-02-04T17:19:38;6.00;5.00;4.40
35654;PMS1003;21773;50.010;19.972;2024-02-04T17:22:46;8.00;5.00;5.00
35654;PMS1003;21773;50.010;19.972;2024-02-04T17:25:52;5.00;4.25;4.00
35654;PMS1003;21773;50.010;19.972;2024-02-04T17:29:02;4.00;4.00;3.00
35654;PMS1003;21773;50.010;19.972;2024-02-04T17:32:09;5.00;4.00;3.40
35654;PMS1003;21773;50.010;19.972;2024-02-04T17:35:13;3.75;3.75;3.00
35654;PMS1003;21773;50.010;19.972;2024-02-04T17:38:17;4.00;3.00;3.00
35654;PMS1003;21773;50.010;19.972;2024-02-04T17:41:21;3.40;3.40;3.00